Terminal Aerodrome Forecast
Issued by NWS

Home | Current Version | Previous Version | Text Only | Print | Product List | Glossary On
Versions: 1 2 3 4 5 6 7 8 9 10 11 12 13 14 15 16
000
FTUS43 KGRB 301730
TAFAUW
TAF
KAUW 301730Z 3018/0118 07014G23KT P6SM SHRA OVC013
      TEMPO 3018/3022 P6SM NSW BKN035
     FM010200 07014G25KT 6SM RA OVC008
     FM010700 09011G25KT 6SM RA OVC005
     FM011000 10007G16KT P6SM SHRA OVC006
     FM011200 12007KT 6SM -SHRA OVC005
     FM011400 16006KT 6SM -SHRA OVC007=

USA.gov is the U.S. government's official web portal to all federal, state and local government web resources and services.